Time;durP1;ratioP1;P1;durP2;ratioP2;P2;SDS_P1;SDS_P2;PMS_P1;PMS_P2;Temp;Humidity;BMP_temperature;BMP_pressure;BME280_temperature;BME280_humidity;BME280_pressure;Samples;Min_cycle;Max_cycle;Signal;HPM_P1;HPM_P2
2021/08/08 00:01:20;;;;;;;0.77;0.47;;;16.10;83.00;;;;;;4880362;29;20082;-82
2021/08/08 00:03:46;;;;;;;0.60;0.60;;;16.20;83.10;;;;;;4850705;29;20037;-82
2021/08/08 00:06:12;;;;;;;0.70;0.60;;;16.20;83.20;;;;;;4865057;29;20668;-82
2021/08/08 00:08:37;;;;;;;0.60;0.60;;;16.10;83.90;;;;;;4882491;29;20041;-82
2021/08/08 00:11:03;;;;;;;1.40;0.60;;;16.20;83.30;;;;;;4850529;29;20093;-82
2021/08/08 00:13:29;;;;;;;0.82;0.70;;;16.20;83.30;;;;;;4864044;29;20074;-82
2021/08/08 00:15:55;;;;;;;1.75;0.90;;;16.20;83.40;;;;;;4864175;29;20029;-83
2021/08/08 00:18:21;;;;;;;0.35;0.35;;;16.20;83.40;;;;;;4862339;29;20033;-81
2021/08/08 00:20:48;;;;;;;1.45;0.55;;;16.20;83.40;;;;;;4849187;29;20041;-81
2021/08/08 00:23:14;;;;;;;1.20;0.80;;;16.20;83.50;;;;;;4858966;29;20044;-83
2021/08/08 00:25:40;;;;;;;1.05;0.80;;;16.20;83.50;;;;;;4860360;29;20074;-84
2021/08/08 00:28:06;;;;;;;1.00;0.70;;;16.20;83.60;;;;;;4856900;29;20060;-81
2021/08/08 00:30:32;;;;;;;0.77;0.70;;;16.20;83.70;;;;;;4860371;29;20488;-82
2021/08/08 00:32:58;;;;;;;1.02;0.80;;;16.00;83.70;;;;;;4843699;29;20060;-83
2021/08/08 00:35:24;;;;;;;2.08;0.90;;;16.20;83.90;;;;;;4844456;29;20484;-82
2021/08/08 00:37:50;;;;;;;0.95;0.60;;;16.10;84.00;;;;;;4859060;29;20073;-81
2021/08/08 00:40:18;;;;;;;0.73;0.73;;;16.10;84.60;;;;;;4858973;29;20127;-82
2021/08/08 00:42:46;;;;;;;0.98;0.73;;;16.20;84.10;;;;;;4858828;29;20041;-82
2021/08/08 00:45:15;;;;;;;0.90;0.77;;;16.20;84.20;;;;;;4843588;29;20484;-82
2021/08/08 00:47:42;;;;;;;1.55;0.80;;;16.10;84.20;;;;;;4858769;29;20048;-83
2021/08/08 00:50:09;;;;;;;2.42;0.80;;;16.10;84.30;;;;;;4858884;29;20117;-82
2021/08/08 00:52:35;;;;;;;1.80;1.00;;;16.10;84.40;;;;;;4862328;29;20064;-81
2021/08/08 00:55:00;;;;;;;1.00;0.90;;;16.10;84.60;;;;;;4859335;29;20041;-82
2021/08/08 00:57:26;;;;;;;1.15;0.80;;;16.10;84.60;;;;;;4859556;29;20071;-82
2021/08/08 00:59:52;;;;;;;1.13;0.80;;;16.10;84.70;;;;;;4862711;29;20033;-81
2021/08/08 01:02:20;;;;;;;1.02;0.82;;;16.10;84.80;;;;;;4863638;29;20045;-81
2021/08/08 01:04:55;;;;;;;2.78;0.90;;;16.10;84.90;;;;;;4881571;29;20049;-81
2021/08/08 01:07:25;;;;;;;2.25;1.10;;;16.00;85.00;;;;;;4863738;29;20033;-80
2021/08/08 01:09:54;;;;;;;0.80;0.80;;;16.00;85.10;;;;;;4850325;29;20492;-81
2021/08/08 01:12:21;;;;;;;1.10;0.95;;;16.00;85.20;;;;;;4881329;29;20043;-80
2021/08/08 01:14:49;;;;;;;1.67;0.90;;;16.00;85.20;;;;;;4861444;29;20042;-81
2021/08/08 01:17:16;;;;;;;1.42;1.10;;;16.00;85.30;;;;;;4843917;29;20025;-80
2021/08/08 01:19:54;;;;;;;0.85;0.80;;;16.00;85.40;;;;;;4859400;29;20034;-81
2021/08/08 01:22:20;;;;;;;1.10;0.98;;;16.00;85.50;;;;;;4860279;29;20045;-80
2021/08/08 01:24:47;;;;;;;1.80;1.00;;;15.90;85.50;;;;;;4878697;29;20150;-81
2021/08/08 01:27:13;;;;;;;1.92;1.23;;;16.00;86.30;;;;;;4879118;29;20120;-83
2021/08/08 01:29:40;;;;;;;1.25;1.15;;;15.90;85.80;;;;;;4878741;29;20040;-81
2021/08/08 01:32:06;;;;;;;1.50;0.90;;;15.90;85.90;;;;;;4862075;29;20045;-80
2021/08/08 01:34:31;;;;;;;1.73;1.10;;;15.90;86.00;;;;;;4861401;29;20064;-81
2021/08/08 01:36:57;;;;;;;1.50;1.20;;;15.90;86.00;;;;;;4840888;29;20086;-81
2021/08/08 01:39:26;;;;;;;2.17;1.35;;;15.90;86.00;;;;;;4846166;29;20029;-83
2021/08/08 01:41:56;;;;;;;3.42;1.50;;;15.90;86.10;;;;;;4845796;29;20073;-82
2021/08/08 01:44:27;;;;;;;1.75;1.33;;;15.90;86.10;;;;;;4846279;29;20051;-82
2021/08/08 01:46:55;;;;;;;2.60;1.33;;;15.90;86.10;;;;;;4845612;29;20140;-81
2021/08/08 01:49:26;;;;;;;1.73;1.17;;;16.00;86.20;;;;;;4845693;29;20037;-82
2021/08/08 01:51:53;;;;;;;1.45;1.17;;;15.90;86.20;;;;;;4861823;29;20065;-81
2021/08/08 01:54:19;;;;;;;2.90;1.50;;;15.90;86.20;;;;;;4847502;29;20407;-83
2021/08/08 01:56:46;;;;;;;2.40;1.70;;;15.90;86.20;;;;;;4848959;29;20033;-82
2021/08/08 01:59:14;;;;;;;4.50;2.05;;;15.90;86.30;;;;;;4864574;29;20072;-81
2021/08/08 02:01:40;;;;;;;2.95;1.80;;;15.90;86.50;;;;;;4864418;29;20041;-81
2021/08/08 02:04:19;;;;;;;4.53;1.65;;;15.80;86.50;;;;;;4865018;29;20108;-81
2021/08/08 02:06:45;;;;;;;2.45;1.50;;;15.80;86.70;;;;;;4862414;29;20037;-82
2021/08/08 02:09:11;;;;;;;3.17;1.67;;;15.80;86.70;;;;;;4880753;29;20045;-82
2021/08/08 02:11:37;;;;;;;2.70;1.38;;;15.80;86.80;;;;;;4864166;29;20055;-84
2021/08/08 02:14:03;;;;;;;2.25;1.63;;;15.80;86.90;;;;;;4848888;29;20055;-81
2021/08/08 02:16:31;;;;;;;3.00;1.55;;;15.80;86.90;;;;;;4864187;29;20044;-83
2021/08/08 02:18:57;;;;;;;4.20;1.50;;;15.80;87.00;;;;;;4881968;29;20033;-83
2021/08/08 02:21:23;;;;;;;3.13;1.50;;;15.80;87.00;;;;;;4864082;29;20049;-81
2021/08/08 02:23:49;;;;;;;3.15;1.60;;;15.80;87.00;;;;;;4863747;29;20037;-82
2021/08/08 02:26:14;;;;;;;2.78;1.60;;;15.80;87.10;;;;;;4864659;29;20480;-81
2021/08/08 02:28:40;;;;;;;3.13;1.60;;;15.80;87.10;;;;;;4880829;29;20090;-81
2021/08/08 02:31:06;;;;;;;3.15;1.55;;;15.80;87.10;;;;;;4864165;29;20037;-81
2021/08/08 02:33:31;;;;;;;2.13;1.40;;;15.80;87.10;;;;;;4848262;29;20066;-80
2021/08/08 02:35:57;;;;;;;2.50;1.40;;;15.80;87.10;;;;;;4848593;29;20476;-80
2021/08/08 02:38:24;;;;;;;1.88;1.13;;;15.80;87.10;;;;;;4880900;29;20034;-82
2021/08/08 02:40:50;;;;;;;2.92;1.60;;;15.80;87.20;;;;;;4848420;29;20511;-82
2021/08/08 02:43:16;;;;;;;3.28;1.73;;;15.80;87.20;;;;;;4874586;29;20049;-80
2021/08/08 02:45:42;;;;;;;3.97;1.50;;;15.80;87.20;;;;;;4871033;29;20053;-80
2021/08/08 02:48:08;;;;;;;3.10;1.40;;;15.80;87.20;;;;;;4879532;29;20492;-82
2021/08/08 02:50:33;;;;;;;3.45;1.45;;;15.80;87.20;;;;;;4847114;29;20026;-81
2021/08/08 02:52:59;;;;;;;2.33;1.45;;;15.80;87.20;;;;;;4845253;29;20056;-82
2021/08/08 02:55:25;;;;;;;3.15;1.70;;;15.80;87.20;;;;;;4860408;29;20041;-82
2021/08/08 02:57:51;;;;;;;2.60;1.75;;;15.80;87.20;;;;;;4847763;29;20083;-82
2021/08/08 03:00:17;;;;;;;3.65;1.83;;;15.80;87.20;;;;;;4847903;29;20097;-81
2021/08/08 03:02:42;;;;;;;4.72;1.83;;;15.80;87.30;;;;;;4880300;29;20041;-83
2021/08/08 03:05:09;;;;;;;3.65;2.05;;;15.80;87.30;;;;;;4879035;29;20041;-81
2021/08/08 03:07:34;;;;;;;4.35;1.90;;;15.80;87.20;;;;;;4863369;29;20143;-82
2021/08/08 03:10:04;;;;;;;2.83;1.80;;;15.80;87.30;;;;;;4847960;29;20146;-81
2021/08/08 03:12:29;;;;;;;4.55;1.90;;;15.80;87.30;;;;;;4862990;29;20083;-81
2021/08/08 03:14:55;;;;;;;3.67;1.55;;;15.80;87.30;;;;;;4863048;29;20524;-80
2021/08/08 03:17:21;;;;;;;3.83;1.83;;;15.80;87.30;;;;;;4863165;29;20052;-81
2021/08/08 03:19:46;;;;;;;3.15;1.75;;;15.80;87.30;;;;;;4879831;29;20135;-81
2021/08/08 03:22:12;;;;;;;4.75;1.60;;;15.80;87.30;;;;;;4862590;29;20177;-81
2021/08/08 03:24:38;;;;;;;3.60;1.83;;;15.80;87.30;;;;;;4847408;29;20042;-81
2021/08/08 03:27:04;;;;;;;2.85;1.50;;;15.80;87.30;;;;;;4862625;29;20041;-81
2021/08/08 03:29:29;;;;;;;3.78;1.77;;;15.80;87.20;;;;;;4847324;29;20131;-81
2021/08/08 03:31:55;;;;;;;2.78;1.42;;;15.80;87.20;;;;;;4863392;29;20191;-81
2021/08/08 03:34:21;;;;;;;2.88;1.55;;;15.80;87.20;;;;;;4862968;29;20045;-82
2021/08/08 03:36:47;;;;;;;3.28;1.70;;;15.90;87.30;;;;;;4863257;29;20037;-82
2021/08/08 03:39:12;;;;;;;2.47;1.42;;;15.80;87.20;;;;;;4847282;29;20048;-81
2021/08/08 03:41:38;;;;;;;3.35;1.80;;;16.00;87.30;;;;;;4863358;29;20069;-81
2021/08/08 03:44:04;;;;;;;2.78;1.38;;;15.90;87.20;;;;;;4862584;29;20371;-81
2021/08/08 03:46:30;;;;;;;3.05;1.30;;;15.90;87.20;;;;;;4847654;29;20396;-83
2021/08/08 03:48:55;;;;;;;3.75;1.67;;;15.90;87.20;;;;;;4883270;29;20041;-80
2021/08/08 03:51:21;;;;;;;3.58;1.70;;;15.90;87.20;;;;;;4864299;29;20038;-81
2021/08/08 03:53:47;;;;;;;3.30;1.67;;;15.90;87.20;;;;;;4865377;29;20053;-82
2021/08/08 03:56:13;;;;;;;4.63;1.65;;;15.80;87.10;;;;;;4864041;29;20365;-82
2021/08/08 03:58:38;;;;;;;3.03;1.67;;;15.90;87.20;;;;;;4864701;29;20041;-82
2021/08/08 04:01:04;;;;;;;3.22;1.60;;;15.90;87.20;;;;;;4849960;29;20040;-83
2021/08/08 04:03:30;;;;;;;3.10;1.52;;;15.80;87.10;;;;;;4848626;29;20043;-81
2021/08/08 04:05:56;;;;;;;3.20;1.40;;;15.80;87.10;;;;;;4861904;29;20061;-82
2021/08/08 04:08:22;;;;;;;2.97;1.55;;;15.80;87.10;;;;;;4881156;29;20061;-83
2021/08/08 04:10:48;;;;;;;3.05;1.40;;;15.80;87.10;;;;;;4847610;29;20044;-82
2021/08/08 04:13:14;;;;;;;2.08;1.33;;;15.90;87.10;;;;;;4846727;29;20045;-82
2021/08/08 04:15:40;;;;;;;2.45;1.45;;;15.90;87.10;;;;;;4846522;29;20087;-82
2021/08/08 04:18:05;;;;;;;2.70;1.20;;;15.80;87.00;;;;;;4846590;29;20052;-83
2021/08/08 04:20:31;;;;;;;2.15;1.30;;;15.90;87.10;;;;;;4861962;29;20037;-82
2021/08/08 04:22:57;;;;;;;2.47;1.42;;;15.80;87.00;;;;;;4847241;29;20476;-84
2021/08/08 04:25:22;;;;;;;2.28;1.30;;;15.90;87.10;;;;;;4846652;29;20481;-83
2021/08/08 04:27:48;;;;;;;2.40;1.30;;;15.90;87.10;;;;;;4879392;29;20440;-83
2021/08/08 04:30:14;;;;;;;3.03;1.73;;;15.90;87.00;;;;;;4862041;29;20037;-83
2021/08/08 04:32:39;;;;;;;3.47;1.50;;;15.80;87.00;;;;;;4847499;29;20477;-82
2021/08/08 04:35:05;;;;;;;2.17;1.33;;;15.90;87.00;;;;;;4861777;29;20037;-82
2021/08/08 04:37:32;;;;;;;1.60;1.10;;;15.80;87.00;;;;;;4862272;29;20029;-83
2021/08/08 04:39:57;;;;;;;4.07;1.67;;;15.80;87.00;;;;;;4846744;29;20472;-83
2021/08/08 04:42:23;;;;;;;3.35;1.50;;;15.80;86.90;;;;;;4846699;29;20081;-83
2021/08/08 04:44:49;;;;;;;3.40;1.30;;;15.80;86.90;;;;;;4878244;29;20036;-82
2021/08/08 04:47:14;;;;;;;2.88;1.25;;;15.80;86.90;;;;;;4862125;29;20029;-82
2021/08/08 04:49:40;;;;;;;4.03;1.60;;;15.90;86.90;;;;;;4862270;29;20491;-82
2021/08/08 04:52:06;;;;;;;2.25;1.38;;;15.90;86.90;;;;;;4846487;29;20066;-82
2021/08/08 04:54:32;;;;;;;3.25;1.50;;;15.90;86.80;;;;;;4862343;29;20128;-83
2021/08/08 04:56:58;;;;;;;2.40;1.23;;;15.80;86.70;;;;;;4878486;29;20061;-82
2021/08/08 04:59:23;;;;;;;3.92;1.42;;;15.90;86.80;;;;;;4846790;29;20097;-82
2021/08/08 05:01:49;;;;;;;3.08;1.38;;;15.90;86.70;;;;;;4846467;29;20037;-82
2021/08/08 05:04:15;;;;;;;2.58;1.50;;;15.90;86.70;;;;;;4861746;29;20045;-82
2021/08/08 05:06:40;;;;;;;2.88;1.45;;;15.90;86.60;;;;;;4846054;29;20051;-83
2021/08/08 05:09:07;;;;;;;2.40;1.38;;;15.90;86.50;;;;;;4846114;29;20033;-82
2021/08/08 05:11:33;;;;;;;1.77;1.30;;;16.00;86.60;;;;;;4862034;29;20045;-82
2021/08/08 05:13:59;;;;;;;4.22;1.50;;;16.00;86.50;;;;;;4862156;29;20048;-84
2021/08/08 05:16:25;;;;;;;2.42;1.52;;;16.00;86.40;;;;;;4846453;29;20120;-81
2021/08/08 05:18:51;;;;;;;3.95;1.75;;;16.00;86.40;;;;;;4860490;29;20121;-81
2021/08/08 05:21:17;;;;;;;4.70;1.60;;;16.00;86.30;;;;;;4845855;29;20384;-81
2021/08/08 05:23:43;;;;;;;3.47;1.58;;;16.00;86.20;;;;;;4862041;29;20575;-81
2021/08/08 05:26:08;;;;;;;2.78;1.60;;;16.00;86.20;;;;;;4845650;29;20112;-81
2021/08/08 05:28:34;;;;;;;2.00;1.10;;;16.00;86.20;;;;;;4844876;29;20035;-81
2021/08/08 05:31:00;;;;;;;1.75;1.17;;;16.00;86.20;;;;;;4845393;29;20396;-82
2021/08/08 05:33:26;;;;;;;3.20;1.40;;;16.00;86.20;;;;;;4861447;29;20077;-81
2021/08/08 05:35:52;;;;;;;3.88;1.45;;;16.10;86.30;;;;;;4877501;29;20041;-81
2021/08/08 05:38:18;;;;;;;3.53;1.30;;;16.00;86.20;;;;;;4877563;29;20075;-82
2021/08/08 05:40:44;;;;;;;3.38;1.23;;;16.00;86.20;;;;;;4860614;29;20089;-83
2021/08/08 05:43:10;;;;;;;3.95;1.50;;;16.00;86.20;;;;;;4860971;29;20049;-81
2021/08/08 05:45:35;;;;;;;4.30;1.48;;;16.10;86.20;;;;;;4877600;29;20506;-81
2021/08/08 05:48:01;;;;;;;2.75;1.35;;;16.10;86.10;;;;;;4861084;29;20496;-82
2021/08/08 05:50:27;;;;;;;3.05;1.30;;;16.10;86.10;;;;;;4877572;29;20037;-82
2021/08/08 05:52:53;;;;;;;2.83;1.13;;;16.10;86.10;;;;;;4860949;29;20045;-82
2021/08/08 05:55:19;;;;;;;3.28;1.40;;;16.10;86.00;;;;;;4862785;29;20041;-82
2021/08/08 05:57:45;;;;;;;3.85;1.27;;;16.20;85.90;;;;;;4857012;29;20056;-82
2021/08/08 06:00:11;;;;;;;2.47;1.40;;;16.20;85.80;;;;;;4882095;29;20037;-82
2021/08/08 06:02:37;;;;;;;2.38;1.20;;;16.20;85.70;;;;;;4865320;29;20033;-82
2021/08/08 06:05:04;;;;;;;1.67;1.20;;;16.30;85.70;;;;;;4863958;29;20407;-82
2021/08/08 06:07:30;;;;;;;3.17;1.40;;;16.20;85.60;;;;;;4882036;29;20041;-81
2021/08/08 06:09:55;;;;;;;2.75;1.40;;;16.30;85.60;;;;;;4881709;29;20440;-81
2021/08/08 06:12:21;;;;;;;4.68;1.63;;;16.30;85.60;;;;;;4863121;29;20037;-82
2021/08/08 06:14:47;;;;;;;1.98;1.35;;;16.20;85.50;;;;;;4861735;29;20055;-81
2021/08/08 06:17:12;;;;;;;3.28;1.10;;;16.20;85.60;;;;;;4846073;29;20507;-82
2021/08/08 06:19:38;;;;;;;2.75;1.25;;;16.20;85.60;;;;;;4878139;29;20041;-82
2021/08/08 06:22:04;;;;;;;4.22;1.52;;;16.30;85.60;;;;;;4861340;29;20076;-81
2021/08/08 06:24:29;;;;;;;4.18;1.55;;;16.40;86.00;;;;;;4878044;29;20365;-81
2021/08/08 06:26:55;;;;;;;3.10;1.30;;;16.40;85.10;;;;;;4847273;29;20044;-81
2021/08/08 06:29:21;;;;;;;2.83;1.40;;;16.50;85.00;;;;;;4823205;29;20034;-81
2021/08/08 06:31:47;;;;;;;3.45;1.55;;;16.50;84.80;;;;;;4808609;29;20046;-81
2021/08/08 06:34:12;;;;;;;3.92;1.45;;;16.50;84.70;;;;;;4807600;29;20054;-81
2021/08/08 06:36:38;;;;;;;2.97;1.40;;;16.60;84.70;;;;;;4838124;29;20049;-82
2021/08/08 06:39:05;;;;;;;4.80;1.75;;;16.60;84.60;;;;;;4792726;29;20034;-81
2021/08/08 06:41:31;;;;;;;4.72;1.83;;;16.70;84.60;;;;;;4841224;29;20130;-81
2021/08/08 06:43:57;;;;;;;3.03;1.70;;;16.70;84.50;;;;;;4810645;29;20042;-81
2021/08/08 06:46:23;;;;;;;3.53;1.60;;;16.70;84.30;;;;;;4825506;29;20046;-81
2021/08/08 06:48:49;;;;;;;4.80;1.60;;;16.70;84.20;;;;;;4825417;29;20045;-81
2021/08/08 06:51:14;;;;;;;4.90;1.60;;;16.70;84.20;;;;;;4841167;29;20042;-81
2021/08/08 06:53:40;;;;;;;5.13;1.75;;;16.70;84.10;;;;;;4810149;29;20057;-79
2021/08/08 06:56:06;;;;;;;6.57;1.63;;;16.70;84.10;;;;;;4825230;29;20098;-79
2021/08/08 06:58:32;;;;;;;4.25;1.48;;;16.70;84.20;;;;;;4841013;29;20094;-79
2021/08/08 07:00:57;;;;;;;3.30;1.40;;;16.70;84.30;;;;;;4834167;29;20124;-79
2021/08/08 07:03:23;;;;;;;2.90;1.50;;;16.70;84.30;;;;;;4862902;29;20072;-78
2021/08/08 07:05:49;;;;;;;5.10;1.73;;;16.70;84.20;;;;;;4848428;29;20069;-79
2021/08/08 07:08:14;;;;;;;4.72;1.52;;;16.80;84.10;;;;;;4847900;29;20464;-79
2021/08/08 07:10:40;;;;;;;3.20;1.35;;;16.80;84.00;;;;;;4863925;29;20048;-79
2021/08/08 07:13:06;;;;;;;3.05;1.40;;;16.90;84.00;;;;;;4847257;29;20060;-78
2021/08/08 07:15:32;;;;;;;4.80;1.83;;;16.90;83.80;;;;;;4879784;29;20058;-78
2021/08/08 07:17:57;;;;;;;3.10;1.70;;;16.90;83.60;;;;;;4881276;29;20048;-78
2021/08/08 07:20:23;;;;;;;3.28;1.50;;;16.90;83.50;;;;;;4880368;29;20033;-78
2021/08/08 07:22:52;;;;;;;4.38;1.63;;;17.00;83.50;;;;;;4864455;29;20177;-80
2021/08/08 07:25:18;;;;;;;1.67;1.30;;;17.00;83.50;;;;;;4862662;29;20037;-82
2021/08/08 07:27:44;;;;;;;4.65;1.67;;;17.10;83.40;;;;;;4881787;29;20068;-79
2021/08/08 07:30:10;;;;;;;3.25;1.30;;;17.10;83.20;;;;;;4865650;29;20723;-80
2021/08/08 07:32:36;;;;;;;3.35;1.70;;;17.20;83.00;;;;;;4864272;29;20047;-80
2021/08/08 07:35:03;;;;;;;3.95;1.45;;;17.10;82.70;;;;;;4883251;29;20041;-84
2021/08/08 07:37:29;;;;;;;2.63;1.30;;;17.20;82.70;;;;;;4851340;29;20476;-80
2021/08/08 07:39:55;;;;;;;3.85;1.50;;;17.30;82.70;;;;;;4865688;29;20064;-78
2021/08/08 07:42:21;;;;;;;3.67;1.50;;;17.30;82.60;;;;;;4866921;29;20063;-81
2021/08/08 07:44:48;;;;;;;3.28;1.60;;;17.40;82.50;;;;;;4855209;29;20045;-80
2021/08/08 07:47:16;;;;;;;2.10;1.20;;;17.40;82.20;;;;;;4853576;29;20120;-80
2021/08/08 07:49:42;;;;;;;4.03;1.40;;;17.50;82.30;;;;;;4886743;29;20089;-80
2021/08/08 07:52:08;;;;;;;3.60;1.55;;;17.50;82.00;;;;;;4866185;29;20056;-81
2021/08/08 07:54:33;;;;;;;2.22;1.33;;;17.40;81.90;;;;;;4862383;29;20049;-79
2021/08/08 07:56:59;;;;;;;2.90;1.30;;;17.50;82.10;;;;;;4879391;29;20041;-79
2021/08/08 07:59:25;;;;;;;1.85;1.25;;;17.50;81.90;;;;;;4880166;29;20033;-79
2021/08/08 08:01:51;;;;;;;2.63;1.50;;;17.60;82.40;;;;;;4849118;29;20047;-80
2021/08/08 08:04:19;;;;;;;2.40;1.30;;;17.60;81.80;;;;;;4863804;29;20059;-80
2021/08/08 08:06:45;;;;;;;3.40;1.20;;;17.60;81.80;;;;;;4865518;29;20047;-81
2021/08/08 08:09:11;;;;;;;2.70;1.13;;;17.70;81.70;;;;;;4881089;29;20116;-81
2021/08/08 08:11:40;;;;;;;2.97;1.40;;;17.60;81.60;;;;;;4881037;29;20060;-81
2021/08/08 08:14:06;;;;;;;1.30;0.85;;;17.60;81.60;;;;;;4862880;29;20057;-80
2021/08/08 08:16:32;;;;;;;2.42;1.17;;;17.60;81.70;;;;;;4849377;29;20045;-80
2021/08/08 08:18:58;;;;;;;2.25;1.08;;;17.60;81.60;;;;;;4863434;29;20037;-80
2021/08/08 08:21:23;;;;;;;2.70;1.00;;;17.60;81.70;;;;;;4880717;29;20033;-80
2021/08/08 08:23:50;;;;;;;3.65;1.10;;;17.70;81.80;;;;;;4863670;29;20037;-80
2021/08/08 08:26:16;;;;;;;1.95;1.10;;;17.80;81.20;;;;;;4863346;29;20056;-81
2021/08/08 08:28:42;;;;;;;3.55;1.27;;;17.80;81.00;;;;;;4847274;29;20041;-80
2021/08/08 08:31:09;;;;;;;1.58;1.08;;;17.80;80.80;;;;;;4865111;29;20094;-79
2021/08/08 08:33:35;;;;;;;2.42;1.25;;;17.80;81.00;;;;;;4851674;29;20041;-80
2021/08/08 08:36:01;;;;;;;2.10;1.05;;;17.80;80.90;;;;;;4885084;29;20101;-81
2021/08/08 08:38:27;;;;;;;2.95;1.40;;;17.90;80.90;;;;;;4882648;29;20037;-79
2021/08/08 08:40:55;;;;;;;4.13;1.45;;;18.10;80.60;;;;;;4885357;29;20040;-80
2021/08/08 08:43:24;;;;;;;1.98;1.00;;;18.30;80.30;;;;;;4882537;29;20048;-79
2021/08/08 08:45:51;;;;;;;3.83;1.40;;;18.40;79.70;;;;;;4880003;29;20836;-81
2021/08/08 08:48:19;;;;;;;3.90;1.52;;;18.50;79.60;;;;;;4845979;29;20040;-81
2021/08/08 08:50:51;;;;;;;3.22;1.30;;;18.60;78.90;;;;;;4878205;29;20061;-80
2021/08/08 08:53:17;;;;;;;3.83;1.40;;;18.70;78.90;;;;;;4846263;29;20063;-78
2021/08/08 08:55:42;;;;;;;3.08;1.30;;;18.60;78.80;;;;;;4877980;29;20041;-79
2021/08/08 08:58:10;;;;;;;2.50;1.30;;;18.60;79.20;;;;;;4862303;29;20054;-79
2021/08/08 09:00:35;;;;;;;5.32;1.50;;;18.70;78.80;;;;;;4878614;29;20047;-79
2021/08/08 09:03:01;;;;;;;2.78;1.30;;;18.70;78.80;;;;;;4861289;29;20120;-78
2021/08/08 09:05:27;;;;;;;3.03;1.48;;;18.80;78.40;;;;;;4878359;29;20492;-78
2021/08/08 09:07:53;;;;;;;2.97;1.60;;;18.80;78.30;;;;;;4872394;29;20071;-78
2021/08/08 09:10:22;;;;;;;1.75;1.10;;;18.70;78.50;;;;;;4886440;29;20037;-80
2021/08/08 09:13:05;;;;;;;2.88;1.38;;;18.80;78.60;;;;;;4901695;29;20084;-78
2021/08/08 09:15:35;;;;;;;3.97;1.45;;;18.70;78.60;;;;;;4884494;29;20025;-78
2021/08/08 09:18:16;;;;;;;3.10;1.50;;;18.80;78.50;;;;;;4901544;29;20033;-79
2021/08/08 09:20:43;;;;;;;;;;;18.70;78.50;;;;;;4893540;29;20041;-80
2021/08/08 09:23:08;;;;;;;3.00;1.50;;;18.80;78.30;;;;;;4898072;29;19949;-78
2021/08/08 09:25:34;;;;;;;4.45;1.50;;;18.90;77.70;;;;;;4895326;29;20037;-80
2021/08/08 09:28:09;;;;;;;3.33;1.40;;;18.80;77.70;;;;;;4896317;29;20065;-78
2021/08/08 09:30:38;;;;;;;2.60;1.30;;;18.80;77.70;;;;;;4879381;29;20041;-79
2021/08/08 09:33:06;;;;;;;4.53;1.60;;;18.80;77.80;;;;;;4877309;29;20049;-80
2021/08/08 09:35:35;;;;;;;2.50;1.55;;;18.70;77.60;;;;;;4896520;29;20025;-79
2021/08/08 09:38:07;;;;;;;2.30;1.50;;;18.60;77.80;;;;;;4898302;29;20042;-79
2021/08/08 09:40:37;;;;;;;2.70;1.40;;;18.70;78.10;;;;;;4897993;29;20041;-79
2021/08/08 09:43:04;;;;;;;3.72;1.40;;;18.70;78.20;;;;;;4878568;29;20060;-80
2021/08/08 09:45:37;;;;;;;2.72;1.35;;;18.70;77.50;;;;;;4899726;29;20049;-80
2021/08/08 09:48:03;;;;;;;2.25;1.50;;;18.60;77.50;;;;;;4882427;29;20037;-79
2021/08/08 09:50:30;;;;;;;3.08;1.40;;;18.60;77.80;;;;;;4863049;29;20067;-79
2021/08/08 09:52:59;;;;;;;2.17;1.10;;;18.50;77.80;;;;;;4880200;29;20057;-79
2021/08/08 09:55:29;;;;;;;2.28;1.20;;;18.60;77.80;;;;;;5146005;24;20041;-79
2021/08/08 09:57:55;;;;;;;4.27;1.20;;;18.70;77.60;;;;;;4864719;29;20060;-81
2021/08/08 10:00:23;;;;;;;1.58;1.20;;;18.70;77.40;;;;;;4878053;29;20281;-79
2021/08/08 10:02:49;;;;;;;3.00;1.40;;;18.70;77.30;;;;;;4876380;29;20056;-79
2021/08/08 10:05:15;;;;;;;2.78;1.23;;;18.70;76.90;;;;;;4877950;29;20073;-79
2021/08/08 10:07:45;;;;;;;2.63;1.10;;;18.80;76.90;;;;;;4896073;29;20053;-78
2021/08/08 10:10:13;;;;;;;1.90;1.20;;;18.90;76.90;;;;;;4896513;29;20039;-79
2021/08/08 10:13:07;;;;;;;2.22;1.27;;;18.90;76.50;;;;;;4895348;29;20311;-83
2021/08/08 10:15:39;;;;;;;2.35;1.25;;;19.10;76.30;;;;;;4855148;29;20042;-79
2021/08/08 10:18:06;;;;;;;3.00;1.42;;;19.20;75.80;;;;;;4862033;29;20045;-78
2021/08/08 10:20:34;;;;;;;3.08;1.20;;;19.30;75.30;;;;;;4882361;29;20025;-80
2021/08/08 10:23:01;;;;;;;3.47;1.40;;;19.30;75.30;;;;;;4881568;29;20041;-78
2021/08/08 10:25:27;;;;;;;3.10;1.30;;;19.20;75.30;;;;;;4878446;29;20055;-79
2021/08/08 10:27:53;;;;;;;2.40;1.20;;;19.10;75.30;;;;;;4880066;29;20060;-78
2021/08/08 10:30:19;;;;;;;3.50;1.30;;;19.10;75.60;;;;;;4895166;29;20013;-78
2021/08/08 10:32:45;;;;;;;2.85;1.42;;;19.00;75.60;;;;;;4863877;29;20048;-78
2021/08/08 10:35:13;;;;;;;2.72;1.40;;;19.00;75.60;;;;;;4897067;29;20044;-78
2021/08/08 10:37:41;;;;;;;2.35;1.20;;;19.10;75.40;;;;;;4880796;29;20062;-78
2021/08/08 10:40:08;;;;;;;1.92;1.10;;;19.20;75.30;;;;;;4879179;29;20069;-77
2021/08/08 10:42:43;;;;;;;1.30;1.02;;;19.30;75.20;;;;;;4856006;29;20492;-77
2021/08/08 10:45:23;;;;;;;2.55;1.20;;;19.40;75.00;;;;;;4892320;29;20044;-78
2021/08/08 10:48:01;;;;;;;2.13;1.30;;;19.30;74.80;;;;;;4880278;29;20037;-77
2021/08/08 10:50:42;;;;;;;1.75;1.02;;;19.20;75.10;;;;;;4893291;29;20119;-78
2021/08/08 10:53:20;;;;;;;2.58;1.08;;;19.10;75.20;;;;;;4877046;29;20053;-78
2021/08/08 10:55:47;;;;;;;2.08;1.40;;;19.10;75.10;;;;;;4888282;29;20037;-78
2021/08/08 10:58:15;;;;;;;3.03;1.35;;;19.20;75.00;;;;;;4873807;29;20044;-78
2021/08/08 11:00:43;;;;;;;2.70;1.30;;;19.20;74.80;;;;;;4894704;29;20047;-77
2021/08/08 11:03:15;;;;;;;3.78;1.35;;;19.20;75.00;;;;;;4873216;29;20046;-78
2021/08/08 11:05:42;;;;;;;2.67;1.15;;;19.20;74.80;;;;;;4821737;29;20038;-79
2021/08/08 11:08:09;;;;;;;2.13;1.10;;;19.20;74.70;;;;;;4850158;29;20141;-79
2021/08/08 11:10:39;;;;;;;3.70;1.50;;;19.30;74.70;;;;;;4858499;29;20053;-80
2021/08/08 11:13:19;;;;;;;2.67;1.30;;;19.30;74.40;;;;;;4856706;29;20049;-78
2021/08/08 11:15:45;;;;;;;1.90;1.25;;;19.40;74.10;;;;;;4888535;29;20080;-78
2021/08/08 11:18:13;;;;;;;3.00;1.40;;;19.30;74.20;;;;;;4868551;29;20377;-79
2021/08/08 11:20:38;;;;;;;2.15;1.20;;;19.40;74.00;;;;;;4887004;29;20065;-79
2021/08/08 11:23:04;;;;;;;3.30;1.45;;;19.40;73.70;;;;;;4889710;29;20105;-78
2021/08/08 11:25:44;;;;;;;2.83;1.20;;;19.30;73.70;;;;;;4886517;29;20048;-78
2021/08/08 11:28:11;;;;;;;2.35;1.10;;;19.40;73.70;;;;;;4888508;29;20037;-78
2021/08/08 11:30:38;;;;;;;1.90;1.00;;;19.30;73.70;;;;;;4892051;29;20049;-77
2021/08/08 11:33:04;;;;;;;2.47;1.15;;;19.30;73.80;;;;;;4862891;29;20060;-76
2021/08/08 11:35:30;;;;;;;3.75;1.20;;;19.40;73.70;;;;;;4858701;29;20074;-78
2021/08/08 11:37:56;;;;;;;3.25;1.20;;;19.40;73.40;;;;;;4874555;29;20052;-78
2021/08/08 11:40:27;;;;;;;3.08;0.95;;;19.40;73.30;;;;;;4877783;29;20062;-79
2021/08/08 11:43:04;;;;;;;2.13;1.00;;;19.40;73.40;;;;;;4887513;29;20101;-78
2021/08/08 11:45:40;;;;;;;1.92;1.00;;;19.40;73.30;;;;;;4871979;29;20030;-78
2021/08/08 11:48:07;;;;;;;1.52;0.90;;;19.60;73.20;;;;;;4876384;29;20060;-78
2021/08/08 11:50:34;;;;;;;2.05;0.90;;;19.70;72.80;;;;;;4896559;29;20552;-77
2021/08/08 11:53:01;;;;;;;2.58;1.05;;;19.80;72.50;;;;;;4859080;29;20072;-78
2021/08/08 11:55:30;;;;;;;3.22;1.15;;;19.90;72.00;;;;;;4871340;29;20101;-78
2021/08/08 11:58:14;;;;;;;3.05;1.40;;;20.00;71.70;;;;;;4892677;29;20037;-77
2021/08/08 12:00:41;;;;;;;2.72;1.20;;;19.90;71.70;;;;;;4873794;29;20033;-78
2021/08/08 12:03:09;;;;;;;1.17;0.77;;;20.00;71.80;;;;;;4892936;29;20049;-77
2021/08/08 12:05:37;;;;;;;3.63;1.10;;;20.10;71.70;;;;;;4892934;29;20053;-78
2021/08/08 12:08:05;;;;;;;1.45;1.05;;;20.20;71.30;;;;;;4873129;29;20041;-77
2021/08/08 12:10:35;;;;;;;1.92;1.00;;;20.30;71.10;;;;;;4889386;29;20117;-78
2021/08/08 12:13:12;;;;;;;1.45;0.80;;;20.40;71.10;;;;;;4889312;29;20056;-77
2021/08/08 12:15:38;;;;;;;2.78;1.08;;;20.40;71.10;;;;;;4891114;29;20064;-76
2021/08/08 12:18:05;;;;;;;1.73;0.90;;;20.40;71.10;;;;;;4895249;29;20033;-78
2021/08/08 12:20:36;;;;;;;2.13;1.02;;;20.30;71.10;;;;;;4890109;29;20480;-77
2021/08/08 12:23:05;;;;;;;3.13;1.10;;;20.40;71.10;;;;;;4890516;29;20113;-77
2021/08/08 12:25:31;;;;;;;1.80;1.00;;;20.30;70.80;;;;;;4876405;29;20045;-77
2021/08/08 12:27:57;;;;;;;2.60;1.13;;;20.10;70.90;;;;;;4890640;29;20028;-78
2021/08/08 12:30:27;;;;;;;3.70;1.23;;;20.00;71.20;;;;;;4890048;29;20049;-79
2021/08/08 12:33:04;;;;;;;3.17;1.05;;;19.80;71.80;;;;;;4889377;29;20047;-78
2021/08/08 12:35:35;;;;;;;2.22;1.02;;;19.50;72.30;;;;;;4874280;29;20070;-78
2021/08/08 12:38:10;;;;;;;2.50;1.00;;;19.30;72.90;;;;;;4887208;29;20033;-77
2021/08/08 12:40:48;;;;;;;1.05;0.80;;;19.00;73.50;;;;;;4888959;29;20086;-77
2021/08/08 12:43:21;;;;;;;1.20;0.90;;;18.80;73.90;;;;;;4884710;29;20017;-76
2021/08/08 12:45:47;;;;;;;1.13;0.70;;;18.80;74.40;;;;;;4879949;29;20052;-77
2021/08/08 12:48:13;;;;;;;1.38;0.80;;;18.90;74.30;;;;;;4898184;29;20108;-76